Tropical Cyclones
[Index]
Main Index Home Page Stock Weather Photos Extreme Storms Discussion Storm News and Storm Chasing Reports Tropical Cyclones / Hurricanes / Typhoons Weather Data and Links Wild Fires / Bushfires Weather Observation Techniques Weather Picture Catalogue Tornado Pictures and Reports Stock Video Footage and DVDs for sale
Season 1985-1986 Tropical Cyclone BILLY Track Map
Season 1985-1986 Summaries: [BoM-AU] [JTWC-AU] [JTWC-SIO] [JTWC-SPAC] [JTWC-SH]
<<- Previous TC | JTWC 1985-1986 Season | Next TC ->>

click for intensity scale information  Lat/long Grid: Show Hide

 Date Labels: Show Hide

Joint Typhoon Warning Centre Cyclone Data

Name: BILLY

04 May 1986 06:00 UTC to 12 May 1986 06:00 UTC

    date/time    lat    long     hPa   cat  kts
1986-05-04 06    6.4    90.2                  25          
1986-05-04 12    5.9    90.5                  25          
1986-05-04 18    5.7    90.6                  25          
1986-05-05 00    5.7    90.5                  25          
1986-05-05 06    5.8    90.4                  30          
1986-05-05 12    6.1    90.4                  35          
1986-05-05 18    6.4    90.4            1     40          
1986-05-06 00    6.9    90.4            1     40          
1986-05-06 06    7.4    90.4            1     45          
1986-05-06 12    7.7    90.6            1     45          
1986-05-06 18    8.0    91.1            1     50          
1986-05-07 00    8.2    92.0            1     50          
1986-05-07 06    8.4    93.0            2     55          
1986-05-07 12    8.7    93.6            2     55          
1986-05-07 18    9.1    93.7            2     60          
1986-05-08 00    9.7    93.5            2     65          
1986-05-08 06   10.3    93.2            2     65          
1986-05-08 12   10.9    92.9            2     65          
1986-05-08 18   11.5    92.5            2     65          
1986-05-09 00   12.1    92.0            2     65          
1986-05-09 06   12.8    91.5            2     65          
1986-05-09 12   13.5    91.0            2     65          
1986-05-09 18   14.2    90.4            2     70          
1986-05-10 00   15.0    89.9            3     75          
1986-05-10 06   15.8    89.6            3     85          
1986-05-10 12   16.7    89.7            3     90          
1986-05-10 18   17.7    90.3            3     95          
1986-05-11 00   18.8    91.1            3     90          
1986-05-11 06   19.8    92.3            3     80          
1986-05-11 12   20.7    93.7            2     65          
1986-05-11 18   21.5    95.2            2     55          
1986-05-12 00   22.2    96.8            1     45          
1986-05-12 06   22.8    98.4            1     40          
Winds are 1-min average.

Tropical cyclone tracks developed by Michael Bath using data from the Joint Typhoon Warning Centre Best Tracks and Google Maps.


[Australian Severe Weather index] [Copyright Notice] [Email Contacts] [Search This Site] [Privacy Policy]
Document: tropical_cyclone_billy.htm Updated: 18 September 2016